Portland 12 Nm Southeast Of Portland,me (44007) Wave Buoy

1:50pm - Mon 24th Oct 2016 All times are EDT. -4 hours from GMT.

  • Sig Wave height 2.6ft
  • Swell Direction
  • Peak Period 3s
  • Average Period 4s
  • Wind
    18mph, 25mph gusts
  • Sea Temp 54°f
  • 空気 Temp 53°f
  • Sea Pressure 1006.5mb
  • Portland 12 Nm Southeast Of Portland,me
  • Portland 12 Nm Southeast Of Portland,me

More Historic Weather Station data

Upgrade to MSW Pro to gain access to the past 30 days of data for over 8000 Wavebouys and Weather Stations around the globe.

Join Pro

Comparision Forecast

View Surf forecast
Mon 10/24 1:50pm 2.5ft 3s 4s 18 25 mph 1006.5mb 54f 53f
12:50pm 3ft 9s 4s 18 22 mph 1006.4mb 54f 53f
11:50am 3ft 10s 4s 22 27 mph 1006.2mb 54f 52f
10:50am 3ft 10s 4s 22 27 mph 1006mb 54f 51f
9:50am 2.5ft 10s 4s 18 25 mph 1006.2mb 54f 50f
8:50am 3ft 10s 4s 20 25 mph 1006.4mb 54f 49f
7:50am 2.5ft 10s 4s 22 25 mph 1006mb 54f 50f
6:50am 3ft 11s 4s 18 22 mph 1005.7mb 54f 50f
5:50am 3ft 11s 5s 18 20 mph 1005.6mb 54f 49f
4:50am 3.5ft 11s 4s 18 22 mph 1005.6mb 54f 49f
3:50am 3.5ft 11s 4s 20 25 mph 1005.1mb 54f 49f
2:50am 3.5ft 10s 5s 25 29 mph 1005mb 54f 51f
1:50am 3.5ft 10s 5s 22 27 mph 1005mb 54f 51f
12:50am 4ft 11s 4s 22 27 mph 1005.3mb 54f 51f
Sun 10/23 10:50pm 4ft 11s 5s 18 22 mph 1004.9mb 54f 51f
9:50pm 3.5ft 10s 6s 22 27 mph 1004.4mb 54f 52f
8:50pm 3.5ft 11s 5s 16 18 mph 1004.3mb 54f 52f
7:50pm 3.5ft 11s 6s 20 25 mph 1003.4mb 54f 52f
6:50pm 3.5ft 11s 6s 18 20 mph 1003.1mb 54f 52f
5:50pm 4ft 12s 4s 20 25 mph 1002.2mb 54f 51f
4:50pm 4.5ft 11s 5s 27 34 mph 1001.1mb 54f 51f
3:50pm 4.5ft 11s 5s 29 34 mph 1000mb 54f 51f
2:50pm 4.5ft 11s 5s 31 38 mph 999.4mb 54f 50f
1:50pm 5.5ft 12s 5s 25 29 mph 999mb 54f 48f
12:50pm 6ft 11s 5s 31 40 mph 998.3mb 54f 48f
11:50am 6.5ft 11s 6s 29 36 mph 998.5mb 54f 47f
10:50am 7ft 11s 6s 31 38 mph 997.8mb 54f 47f
9:50am 6.5ft 12s 6s 25 31 mph 997.6mb 54f 46f
8:50am 6.5ft 12s 6s 27 34 mph 997mb 54f 45f
7:50am 6ft 10s 5s 27 36 mph 996.2mb 55f 45f
6:50am 6ft 6s 5s 29 34 mph 994.6mb 55f 44f
5:50am 6ft 6s 5s 31 38 mph 993.7mb 55f 44f
4:50am 6.5ft 11s 5s 31 38 mph 992.6mb 55f 43f
3:50am 6ft 11s 5s 29 36 mph 991.6mb 55f 46f
2:50am 6ft 11s 6s 31 38 mph 990.8mb 55f 46f
1:50am 7ft 11s 6s 29 38 mph 990.1mb 55f 46f
12:50am 7ft 11s 6s 29 36 mph 989.6mb 56f 46f
Sat 10/22 11:50pm 7ft 9s 6s 29 38 mph 988.8mb 56f 46f
10:50pm 7.5ft 11s 6s 29 36 mph 988mb 56f 47f
9:50pm 7ft 10s 6s 27 34 mph 987.6mb 56f 49f
8:50pm 6ft 10s 6s 27 31 mph 986.9mb 56f 50f
7:50pm 5.5ft 9s 5s 22 27 mph 985.9mb 56f 52f
6:50pm 5ft 10s 6s 25 29 mph 984.7mb 56f 54f
5:50pm 5ft 8s 6s 18 22 mph 983.8mb 56f 55f
4:50pm 5ft 9s 7s 11 16 mph 984.1mb 56f 57f
3:50pm 5ft 9s 7s 9 11 mph 984.5mb 56f 57f
2:50pm 5.5ft 8s 6s 4 7 mph 985.5mb 57f 57f
1:50pm 6ft 9s 7s 2 4 mph 986.3mb 57f 59f
12:50pm 6ft 9s 7s  -  2 mph 987.2mb 57f 59f
11:50am 6ft 9s 7s 2 4 mph 988.2mb 56f 59f
10:50am 6ft 9s 7s  -  2 mph 989mb 56f 58f
9:50am 5.5ft 9s 7s 2 4 mph 989.5mb 56f 58f
8:50am 4.5ft 9s 6s 4
990.3mb 56f 57f
7:50am 4.5ft 6s 6s 4 7 mph 990.5mb 56f 57f
6:50am 4.5ft 6s 6s 7 9 mph 990.5mb 56f 58f
5:50am 4.5ft 7s 6s 9
990.9mb 56f 58f
4:50am 4.5ft 7s 5s 7
991.5mb 56f 58f
3:50am 4.5ft 6s 5s 9
991.6mb 56f 58f
2:50am 4.5ft 7s 5s 13 16 mph 992.7mb 56f 58f
1:50am 4.5ft 7s 5s 16 18 mph 994.3mb 56f 58f
12:50am 5ft 6s 5s 9 11 mph 996.5mb 56f 58f
Fri 10/21 11:50pm 5.5ft 7s 5s 2 7 mph 998.1mb 56f 62f
10:50pm 5ft 6s 5s 22 27 mph 996.7mb 56f 59f
9:50pm 4.5ft 7s 4s 22 27 mph 997.9mb 56f 59f
8:50pm 4ft 7s 5s 18 22 mph 999.8mb 56f 59f
7:50pm 4ft 7s 5s 16 18 mph 1001.9mb 56f 58f
6:50pm 4ft 6s 5s 13 20 mph 1003.3mb 56f 58f
5:50pm 4.5ft 7s 5s 16 18 mph 1004mb 56f 58f
4:50pm 4.5ft 7s 5s 13 16 mph 1004.9mb 56f 59f
3:50pm 4.5ft 7s 5s 11 13 mph 1005.9mb 57f 59f
2:50pm 4.5ft 7s 6s 9 11 mph 1007.2mb 57f 59f
1:50pm 5ft 7s 6s 4
1008.3mb 56f 59f
12:50pm 5ft 7s 6s 4 7 mph 1009.6mb 56f 58f
11:50am 5ft 7s 5s  -  2 mph 1010.7mb 56f 58f
10:50am 4.5ft 6s 5s 2 4 mph 1011.3mb 56f 57f
9:50am 5ft 7s 6s 7 9 mph 1012.1mb 56f 58f
8:50am 5ft 7s 6s 11 13 mph 1012.6mb 56f 58f
7:50am 5ft 6s 5s 4
1012.9mb 56f 57f
6:50am 5ft 6s 5s  -  2 mph 1013.1mb 56f 57f
5:50am 4.5ft 6s 5s 2 4 mph 1013.5mb 56f 57f
4:50am 4ft 6s 5s 9 11 mph 1013.9mb 56f 56f
3:50am 4ft 6s 5s 11 13 mph 1014.8mb 56f 56f
2:50am 4ft 5s 5s 9 11 mph 1016.4mb 56f 56f
1:50am 4.5ft 5s 4s 16 20 mph 1017.5mb 56f 56f
12:50am 3.5ft 5s 4s 16 18 mph 1018.2mb 56f 56f
Thu 10/20 10:50pm 3.5ft 5s 4s 16 18 mph 1020.3mb 56f 56f
9:50pm 3.5ft 4s 4s 16 18 mph 1021.6mb 56f 55f
8:50pm 3.5ft 4s 4s 18 22 mph 1021.9mb 56f 55f
7:50pm 3.5ft 4s 4s 20 22 mph 1021.8mb 56f 55f